Aline, Oklahoma
Current Conditions -  °F | °C
As of 7:50 PM on Friday 31 Oct 2014 (Local Time) from KAVK Reporting Station
Clear Clear  
Wind Chill: 36°   Ceiling: Unl
Heat Index: 41°   Visibility: 10mi
Dew Point: 23°   Wind: 7mph
Humidity: 49%   Direction: 70°ENE
Pressure: 30.42"   Gusts: NA
Location:  36.51°N, 98.45°W
Report Text: KAVK 010050Z AUTO 07006KT 10SM CLR 05/M05 A3042 RMK AO2
Loading
Personal Weather Stations






























Interactive Weather Map
Tropical Storm Tracking
New forecast layout! Learn more

10-Day Weather Forecast

Advertisements
Track Severe Weather on mobile